createdAt,value
2019-03-18T00:05:02.610Z,0.62
2019-03-18T00:10:08.927Z,0.70
2019-03-18T00:15:16.519Z,0.60
2019-03-18T00:20:20.739Z,0.70
2019-03-18T00:25:26.916Z,0.67
2019-03-18T00:30:31.466Z,0.53
2019-03-18T00:35:35.902Z,0.70
2019-03-18T00:40:40.139Z,0.67
2019-03-18T00:45:46.128Z,0.60
2019-03-18T00:50:50.354Z,0.60
2019-03-18T00:55:55.794Z,0.57
2019-03-18T01:01:00.084Z,0.70
2019-03-18T01:06:05.884Z,0.67
2019-03-18T01:11:10.448Z,0.70
2019-03-18T01:16:15.804Z,0.60
2019-03-18T01:21:20.312Z,0.70
2019-03-18T01:26:25.997Z,0.60
2019-03-18T01:31:30.661Z,0.70
2019-03-18T01:36:36.158Z,0.70
2019-03-18T01:41:40.690Z,0.57
2019-03-18T01:46:46.055Z,0.50
2019-03-18T01:51:50.563Z,0.67
2019-03-18T01:56:56.211Z,0.70
2019-03-18T02:02:00.454Z,0.70
2019-03-18T02:07:05.988Z,0.80
2019-03-18T02:12:10.217Z,0.70
2019-03-18T02:17:16.868Z,0.90
2019-03-18T02:22:21.120Z,0.80
2019-03-18T02:27:25.403Z,0.80
2019-03-18T02:32:29.698Z,0.70
2019-03-18T02:37:36.348Z,0.70
2019-03-18T02:42:40.619Z,0.78
2019-03-18T02:47:46.155Z,0.80
2019-03-18T02:52:50.668Z,1.10
2019-03-18T02:57:57.988Z,0.83
2019-03-18T03:03:02.266Z,0.90
2019-03-18T03:08:07.888Z,0.80
2019-03-18T03:13:12.128Z,1.07
2019-03-18T03:18:18.115Z,1.20
2019-03-18T03:23:22.355Z,1.50
2019-03-18T03:28:27.778Z,1.10
2019-03-18T03:33:32.075Z,1.30
2019-03-18T03:38:37.506Z,1.20
2019-03-18T03:43:41.730Z,1.60
2019-03-18T03:48:47.712Z,1.50
2019-03-18T03:53:51.943Z,1.40
2019-03-18T03:58:57.605Z,1.60
2019-03-18T04:04:01.858Z,1.63
2019-03-18T04:09:06.715Z,1.90
2019-03-18T04:14:12.210Z,1.70
2019-03-18T04:19:16.443Z,1.60
2019-03-18T04:24:21.751Z,1.60
2019-03-18T04:29:26.006Z,1.70
2019-03-18T04:34:30.279Z,1.53
2019-03-18T04:39:35.676Z,1.77
2019-03-18T04:44:39.930Z,1.70
2019-03-18T04:49:44.187Z,1.60
2019-03-18T04:54:48.722Z,1.50
2019-03-18T04:59:52.962Z,1.43
2019-03-18T05:04:57.226Z,1.80
2019-03-18T05:10:01.458Z,1.80
2019-03-18T05:15:05.814Z,1.80
2019-03-18T05:20:10.140Z,1.60
2019-03-18T05:25:14.372Z,1.80
2019-03-18T05:30:18.629Z,1.67
2019-03-18T05:35:22.899Z,2.17
2019-03-18T05:40:29.692Z,2.50
2019-03-18T05:45:33.979Z,3.43
2019-03-18T05:50:38.304Z,2.60
2019-03-18T05:55:42.612Z,2.33
2019-03-18T06:00:46.883Z,2.20
2019-03-18T06:05:51.250Z,2.10
2019-03-18T06:10:55.529Z,2.70
2019-03-18T06:15:59.751Z,2.20
2019-03-18T06:21:04.326Z,2.50
2019-03-18T06:26:08.531Z,2.50
2019-03-18T06:31:13.182Z,2.30
2019-03-18T06:36:17.456Z,2.37
2019-03-18T06:41:21.786Z,2.20
2019-03-18T06:46:27.976Z,2.00
2019-03-18T06:51:32.603Z,1.77
2019-03-18T06:56:36.877Z,2.37
2019-03-18T07:01:41.166Z,2.47
2019-03-18T07:06:45.444Z,2.00
2019-03-18T07:11:50.030Z,2.07
2019-03-18T07:16:54.298Z,2.40
2019-03-18T07:21:58.532Z,2.00
2019-03-18T07:27:02.876Z,1.80
2019-03-18T07:32:07.145Z,1.77
2019-03-18T07:37:11.411Z,1.73
2019-03-18T07:42:15.932Z,1.87
2019-03-18T07:47:20.487Z,2.27
2019-03-18T07:52:24.791Z,1.93
2019-03-18T07:57:29.045Z,2.13
2019-03-18T08:02:33.367Z,1.20
2019-03-18T08:07:37.681Z,1.80
2019-03-18T08:12:41.937Z,1.53
2019-03-18T08:17:46.678Z,1.80
2019-03-18T08:22:51.051Z,1.60
2019-03-18T08:27:56.316Z,1.33
2019-03-18T08:33:00.591Z,1.55
2019-03-18T08:38:05.235Z,1.60
2019-03-18T08:43:09.470Z,1.60
2019-03-18T08:48:14.102Z,1.63
2019-03-18T08:53:18.399Z,1.95
2019-03-18T08:58:23.691Z,1.90
2019-03-18T09:03:28.243Z,1.90
2019-03-18T09:08:32.932Z,1.50
2019-03-18T09:13:37.325Z,1.50
2019-03-18T09:18:41.958Z,2.07
2019-03-18T09:23:46.189Z,1.60
2019-03-18T09:28:50.426Z,1.82
2019-03-18T09:33:54.666Z,1.80
2019-03-18T09:38:59.333Z,1.87
2019-03-18T09:44:03.961Z,1.80
2019-03-18T09:49:20.658Z,1.43
2019-03-18T09:54:14.993Z,1.20
2019-03-18T09:59:19.539Z,1.40
2019-03-18T10:04:23.805Z,1.57
2019-03-18T10:09:28.061Z,1.30
2019-03-18T10:14:33.805Z,1.63
2019-03-18T10:19:38.610Z,1.40
2019-03-18T10:24:43.114Z,1.47
2019-03-18T10:29:47.707Z,1.30
2019-03-18T10:34:52.235Z,1.30
2019-03-18T10:39:57.454Z,1.33
2019-03-18T10:45:01.970Z,1.57
2019-03-18T10:50:07.900Z,1.20
2019-03-18T10:55:12.431Z,1.20
2019-03-18T11:00:17.184Z,1.20
2019-03-18T11:05:21.754Z,1.00
2019-03-18T11:10:27.231Z,1.07
2019-03-18T11:15:33.233Z,1.20
2019-03-18T11:20:37.878Z,1.10
2019-03-18T11:25:42.374Z,1.27
2019-03-18T11:30:47.692Z,1.53
2019-03-18T11:35:52.199Z,1.57
2019-03-18T11:40:57.302Z,1.50
2019-03-18T11:46:01.546Z,1.10
2019-03-18T11:51:06.870Z,1.27
2019-03-18T11:56:11.589Z,1.10
2019-03-18T12:01:16.872Z,1.17
2019-03-18T12:06:22.575Z,1.33
2019-03-18T12:11:28.275Z,1.60
2019-03-18T12:16:32.778Z,1.43
2019-03-18T12:21:37.810Z,1.27
2019-03-18T12:26:42.323Z,0.97
2019-03-18T12:31:47.631Z,1.20
2019-03-18T12:36:52.138Z,1.20
2019-03-18T12:41:59.666Z,1.17
2019-03-18T12:47:04.169Z,1.00
2019-03-18T12:52:10.155Z,1.07
2019-03-18T12:57:14.750Z,1.00
2019-03-18T13:02:20.888Z,1.30
2019-03-18T13:07:25.385Z,1.20
2019-03-18T13:12:31.182Z,0.90
2019-03-18T13:17:35.711Z,1.03
2019-03-18T13:22:41.410Z,0.80
2019-03-18T13:27:45.925Z,0.80
2019-03-18T13:32:50.918Z,0.90
2019-03-18T13:37:55.418Z,0.90
2019-03-18T13:43:01.506Z,0.80
2019-03-18T13:48:06.027Z,1.00
2019-03-18T13:53:11.598Z,1.07
2019-03-18T13:58:16.116Z,1.00
2019-03-18T14:03:21.330Z,0.87
2019-03-18T14:08:25.851Z,1.10
2019-03-18T14:13:31.612Z,1.30
2019-03-18T14:18:36.212Z,1.07
2019-03-18T14:23:41.830Z,0.80
2019-03-18T14:28:46.425Z,0.80
2019-03-18T14:33:51.561Z,1.00
2019-03-18T14:38:56.100Z,1.00
2019-03-18T14:44:01.753Z,1.03
2019-03-18T14:49:06.285Z,0.80
2019-03-18T14:54:12.590Z,1.10
2019-03-18T14:59:17.114Z,1.20
2019-03-18T15:04:21.660Z,1.10
2019-03-18T15:09:26.206Z,1.03
2019-03-18T15:14:32.167Z,1.20
2019-03-18T15:19:36.815Z,1.00
2019-03-18T15:24:42.571Z,0.90
2019-03-18T15:29:47.278Z,1.23
2019-03-18T15:34:52.156Z,0.80
2019-03-18T15:39:56.820Z,0.80
2019-03-18T15:45:03.340Z,0.83
2019-03-18T15:50:09.382Z,1.03
2019-03-18T15:55:15.265Z,1.00
2019-03-18T16:00:20.236Z,0.60
2019-03-18T16:05:25.786Z,1.10
2019-03-18T16:10:30.303Z,0.90
2019-03-18T16:15:34.773Z,1.00
2019-03-18T16:20:39.034Z,0.90
2019-03-18T16:25:44.836Z,0.90
2019-03-18T16:30:49.397Z,1.00
2019-03-18T16:35:56.909Z,1.00
2019-03-18T16:41:01.418Z,1.00
2019-03-18T16:46:05.943Z,1.00
2019-03-18T16:51:11.546Z,0.80
2019-03-18T16:56:17.443Z,0.82
2019-03-18T17:01:21.699Z,0.80
2019-03-18T17:06:26.621Z,0.95
2019-03-18T17:11:31.160Z,0.80
2019-03-18T17:16:35.550Z,0.90
2019-03-18T17:21:40.075Z,1.20
2019-03-18T17:26:45.992Z,0.80
2019-03-18T17:31:51.754Z,0.80
2019-03-18T17:36:57.150Z,0.70
2019-03-18T17:42:01.434Z,0.80
2019-03-18T17:47:07.702Z,2.50
2019-03-18T17:52:12.027Z,0.75
2019-03-18T17:57:18.047Z,0.80
2019-03-18T18:02:22.323Z,0.80
2019-03-18T18:07:27.862Z,1.17
2019-03-18T18:12:32.095Z,1.30
2019-03-18T18:17:36.382Z,1.10
2019-03-18T18:22:41.192Z,0.95
2019-03-18T18:27:47.264Z,0.77
2019-03-18T18:32:52.788Z,0.77
2019-03-18T18:37:57.359Z,0.87
2019-03-18T18:43:01.870Z,0.90
2019-03-18T18:48:07.865Z,0.93
2019-03-18T18:53:12.374Z,0.70
2019-03-18T18:58:17.959Z,0.85
2019-03-18T19:03:22.515Z,0.90
2019-03-18T19:08:28.497Z,0.70
2019-03-18T19:13:33.037Z,0.80
2019-03-18T19:18:38.315Z,1.00
2019-03-18T19:23:42.681Z,0.93
2019-03-18T19:28:48.593Z,1.00
2019-03-18T19:33:53.157Z,0.97
2019-03-18T19:38:58.517Z,1.03
2019-03-18T19:44:02.812Z,1.02
2019-03-18T19:49:07.396Z,1.07
2019-03-18T19:54:12.898Z,0.80
2019-03-18T19:59:17.531Z,0.90
2019-03-18T20:04:21.816Z,0.90
2019-03-18T20:09:27.242Z,1.00
2019-03-18T20:14:32.787Z,0.80
2019-03-18T20:19:38.599Z,1.70
2019-03-18T20:24:42.940Z,1.33
2019-03-18T20:29:48.718Z,1.50
2019-03-18T20:34:53.059Z,1.50
2019-03-18T20:39:58.552Z,1.40
2019-03-18T20:45:02.933Z,1.67
2019-03-18T20:50:09.080Z,1.60
2019-03-18T20:55:13.733Z,1.60
2019-03-18T21:00:19.330Z,1.87
2019-03-18T21:05:25.207Z,1.75
2019-03-18T21:10:30.682Z,1.50
2019-03-18T21:15:35.272Z,1.30
2019-03-18T21:20:40.714Z,1.30
2019-03-18T21:25:44.963Z,1.77
2019-03-18T21:30:50.598Z,1.73
2019-03-18T21:35:55.936Z,1.05
2019-03-18T21:41:02.134Z,1.47
2019-03-18T21:46:06.449Z,1.57
2019-03-18T21:51:12.116Z,1.40
2019-03-18T21:56:16.378Z,1.40
2019-03-18T22:01:22.320Z,1.40
2019-03-18T22:06:26.839Z,1.40
2019-03-18T22:11:32.242Z,1.30
2019-03-18T22:16:36.482Z,1.50
2019-03-18T22:21:41.406Z,1.23
2019-03-18T22:26:45.929Z,1.73
2019-03-18T22:31:51.200Z,1.40
2019-03-18T22:36:55.731Z,1.30
2019-03-18T22:42:01.415Z,1.53
2019-03-18T22:47:05.933Z,1.30
2019-03-18T22:52:11.658Z,1.40
2019-03-18T22:57:16.205Z,1.53
2019-03-18T23:02:22.035Z,1.50
2019-03-18T23:07:26.291Z,1.67
2019-03-18T23:12:32.033Z,1.57
2019-03-18T23:17:37.810Z,1.50
2019-03-18T23:22:42.275Z,1.50
2019-03-18T23:27:46.501Z,1.52
2019-03-18T23:32:51.555Z,1.30
2019-03-18T23:37:56.255Z,1.50
2019-03-18T23:43:02.040Z,1.77
2019-03-18T23:48:06.262Z,1.40
2019-03-18T23:53:12.014Z,1.30
2019-03-18T23:58:16.534Z,1.50
